createdAt,value
2022-09-12T00:01:53.494Z,6.95
2022-09-12T00:06:53.502Z,5.65
2022-09-12T00:09:23.525Z,5.03
2022-09-12T00:11:53.556Z,4.75
2022-09-12T00:14:23.603Z,5.68
2022-09-12T00:16:53.630Z,5.48
2022-09-12T00:19:23.637Z,5.16
2022-09-12T00:21:53.644Z,5.34
2022-09-12T00:24:23.677Z,5.79
2022-09-12T00:26:53.695Z,6.43
2022-09-12T00:29:23.719Z,6.28
2022-09-12T00:31:53.810Z,6.11
2022-09-12T00:36:53.811Z,7.02
2022-09-12T00:39:23.802Z,6.65
2022-09-12T00:41:53.820Z,5.92
2022-09-12T00:46:53.867Z,5.21
2022-09-12T00:49:23.911Z,5.21
2022-09-12T00:51:54.059Z,4.91
2022-09-12T00:54:23.958Z,6.78
2022-09-12T01:01:54.091Z,6.11
2022-09-12T01:04:24.039Z,6.01
2022-09-12T01:06:54.076Z,6.32
2022-09-12T01:16:54.159Z,6.49
2022-09-12T01:19:24.198Z,6.33
2022-09-12T01:21:54.209Z,6.74
2022-09-12T01:29:24.270Z,6.73
2022-09-12T01:31:54.354Z,6.73
2022-09-12T01:36:54.348Z,6.29
2022-09-12T01:39:24.365Z,6.03
2022-09-12T01:41:54.395Z,5.91
2022-09-12T01:46:54.446Z,6.99
2022-09-12T01:49:24.476Z,6.45
2022-09-12T01:51:54.485Z,7.93
2022-09-12T01:54:24.503Z,7.21
2022-09-12T01:59:24.576Z,7.93
2022-09-12T02:01:54.609Z,6.99
2022-09-12T02:04:24.766Z,6.56
2022-09-12T02:09:24.654Z,8.43
2022-09-12T02:14:24.722Z,7.79
2022-09-12T02:16:54.744Z,7.35
2022-09-12T02:19:24.744Z,7.21
2022-09-12T02:26:54.825Z,6.92
2022-09-12T02:29:24.843Z,6.78
2022-09-12T02:31:54.857Z,8.32
2022-09-12T02:34:24.885Z,8.12
2022-09-12T02:36:54.921Z,7.49
2022-09-12T02:39:24.948Z,7.63
2022-09-12T02:41:54.962Z,7.8
2022-09-12T02:44:24.992Z,9.06
2022-09-12T02:46:54.996Z,8.21
2022-09-12T02:51:55.075Z,9.36
2022-09-12T02:54:25.098Z,9.39
2022-09-12T02:59:25.111Z,8.23
2022-09-12T03:01:55.170Z,7.83
2022-09-12T03:04:25.184Z,10.29
2022-09-12T03:06:55.203Z,9.5
2022-09-12T03:09:25.208Z,8.43
2022-09-12T03:11:55.235Z,7.8
2022-09-12T03:14:25.272Z,7.34
2022-09-12T03:16:55.303Z,6.47
2022-09-12T03:19:25.301Z,7.58
2022-09-12T03:21:55.347Z,7.92
2022-09-12T03:24:25.372Z,7.6
2022-09-12T03:26:55.374Z,7.42
2022-09-12T03:29:25.415Z,6.57
2022-09-12T03:31:55.442Z,6.74
2022-09-12T03:34:25.459Z,7.43
2022-09-12T03:36:55.581Z,6.75
2022-09-12T03:39:25.490Z,7.41
2022-09-12T03:41:55.516Z,6.79
2022-09-12T03:44:25.550Z,7.16
2022-09-12T03:46:55.581Z,7.25
2022-09-12T03:49:25.600Z,7.72
2022-09-12T03:51:55.616Z,7.8
2022-09-12T03:54:25.663Z,7.44
2022-09-12T03:56:55.842Z,9.37
2022-09-12T03:59:25.700Z,9.31
2022-09-12T04:01:55.753Z,7.66
2022-09-12T04:06:55.752Z,7.3
2022-09-12T04:09:25.783Z,7.44
2022-09-12T04:11:55.809Z,7.39
2022-09-12T04:14:25.830Z,8.52
2022-09-12T04:19:25.871Z,6.79
2022-09-12T04:21:55.899Z,6.48
2022-09-12T04:24:25.942Z,8.46
2022-09-12T04:26:55.955Z,7.58
2022-09-12T04:29:25.980Z,10.27
2022-09-12T04:31:56.016Z,9.34
2022-09-12T04:34:26.017Z,9.59
2022-09-12T04:36:56.038Z,9.94
2022-09-12T04:39:26.072Z,10.29
2022-09-12T04:44:26.111Z,7.96
2022-09-12T04:46:56.131Z,9.11
2022-09-12T04:49:26.152Z,10.96
2022-09-12T04:51:56.191Z,14.01
2022-09-12T04:54:26.213Z,13.07
2022-09-12T04:56:56.229Z,11.01
2022-09-12T04:59:26.263Z,10.49
2022-09-12T05:01:56.319Z,10.5
2022-09-12T05:04:26.290Z,11.05
2022-09-12T05:06:56.328Z,11.41
2022-09-12T05:09:26.342Z,10.44
2022-09-12T05:12:04.914Z,10.78
2022-09-12T05:14:26.395Z,10.84
2022-09-12T05:16:56.446Z,9.85
2022-09-12T05:19:26.445Z,10.56
2022-09-12T05:21:56.482Z,10.71
2022-09-12T05:26:56.527Z,10.56
2022-09-12T05:29:26.547Z,12.59
2022-09-12T05:31:56.548Z,14.11
2022-09-12T05:36:56.605Z,13.41
2022-09-12T05:39:26.627Z,12.27
2022-09-12T05:41:56.668Z,11.12
2022-09-12T05:46:56.697Z,10.18
2022-09-12T05:49:26.730Z,9.77
2022-09-12T05:51:56.738Z,12.14
2022-09-12T05:54:30.841Z,12.53
2022-09-12T05:56:56.796Z,13.02
2022-09-12T05:59:26.814Z,12.12
2022-09-12T06:01:56.936Z,11.42
2022-09-12T06:04:26.851Z,12.23
2022-09-12T06:09:26.944Z,14.36
2022-09-12T06:11:56.958Z,15.08
2022-09-12T06:16:57.026Z,15.34
2022-09-12T06:19:26.997Z,16.02
2022-09-12T06:21:57.063Z,16.74
2022-09-12T06:24:27.065Z,18.21
2022-09-12T06:26:57.070Z,20.1
2022-09-12T06:29:27.105Z,20.89
2022-09-12T06:34:27.159Z,19.2
2022-09-12T06:36:57.164Z,21.39
2022-09-12T06:41:57.232Z,18.99
2022-09-12T06:44:27.230Z,20.65
2022-09-12T06:46:57.272Z,20.98
2022-09-12T06:51:57.305Z,26.66
2022-09-12T06:54:27.342Z,23.11
2022-09-12T06:56:57.361Z,24.96
2022-09-12T06:59:27.371Z,24.62
2022-09-12T07:01:57.564Z,25.99
2022-09-12T07:04:27.417Z,25.16
2022-09-12T07:09:27.476Z,31.01
2022-09-12T07:11:57.493Z,32.61
2022-09-12T07:14:27.551Z,33.37
2022-09-12T07:16:57.585Z,31.33
2022-09-12T07:19:27.571Z,29.89
2022-09-12T07:21:58.830Z,31.01
2022-09-12T07:24:27.603Z,34
2022-09-12T07:26:57.639Z,34.29
2022-09-12T07:29:37.454Z,36.56
2022-09-12T07:34:27.722Z,35.33
2022-09-12T07:36:57.746Z,37.72
2022-09-12T07:41:57.789Z,33
2022-09-12T07:46:57.824Z,40.14
2022-09-12T07:51:57.868Z,39.13
2022-09-12T07:54:27.880Z,38.88
2022-09-12T07:56:57.927Z,37.96
2022-09-12T08:01:57.982Z,36.1
2022-09-12T08:09:28.029Z,33.33
2022-09-12T08:11:58.183Z,34.93
2022-09-12T08:14:28.084Z,38.87
2022-09-12T08:16:58.124Z,37
2022-09-12T08:21:58.156Z,40.97
2022-09-12T08:24:28.176Z,40.41
2022-09-12T08:26:58.194Z,34.29
2022-09-12T08:31:58.260Z,34.16
2022-09-12T08:39:28.322Z,40.75
2022-09-12T08:41:58.426Z,37.82
2022-09-12T08:44:28.390Z,37.49
2022-09-12T08:54:28.500Z,37.89
2022-09-12T08:56:58.495Z,34.73
2022-09-12T08:59:28.520Z,38.22
2022-09-12T09:01:58.701Z,34.78
2022-09-12T09:04:28.921Z,34.11
2022-09-12T09:06:58.567Z,35.03
2022-09-12T09:09:28.600Z,29.83
2022-09-12T09:11:58.634Z,30.86
2022-09-12T09:14:28.662Z,29.57
2022-09-12T09:16:58.656Z,31.44
2022-09-12T09:21:58.759Z,29.06
2022-09-12T09:24:28.733Z,26.95
2022-09-12T09:26:58.755Z,29.03
2022-09-12T09:29:28.791Z,26.53
2022-09-12T09:31:58.804Z,25.11
2022-09-12T09:36:58.850Z,23.12
2022-09-12T09:39:28.881Z,19.6
2022-09-12T09:44:28.945Z,22.76
2022-09-12T09:46:58.955Z,19.3
2022-09-12T09:49:29.131Z,18.15
2022-09-12T09:52:00.577Z,14.35
2022-09-12T09:54:29.025Z,15.36
2022-09-12T09:56:59.035Z,11.38
2022-09-12T10:01:59.094Z,8.72
2022-09-12T10:04:29.117Z,8.71
2022-09-12T10:09:29.156Z,8.23
2022-09-12T10:11:59.191Z,6.84
2022-09-12T10:14:29.232Z,7.33
2022-09-12T10:16:59.232Z,6.67
2022-09-12T10:21:59.280Z,5.92
2022-09-12T10:24:29.294Z,5.26
2022-09-12T10:26:59.315Z,5.94
2022-09-12T10:29:29.351Z,6.15
2022-09-12T10:31:59.381Z,6.22
2022-09-12T10:34:29.405Z,6.05
2022-09-12T10:36:59.420Z,6.72
2022-09-12T10:39:29.428Z,5.19
2022-09-12T10:41:59.483Z,4.91
2022-09-12T10:44:29.477Z,5.48
2022-09-12T10:46:59.511Z,4.92
2022-09-12T10:49:29.538Z,4.93
2022-09-12T10:51:59.567Z,5.12
2022-09-12T10:56:59.595Z,4.75
2022-09-12T10:59:29.617Z,4
2022-09-12T11:01:59.660Z,4.36
2022-09-12T11:04:29.666Z,4.13
2022-09-12T11:06:59.682Z,3.9
2022-09-12T11:09:29.724Z,4.25
2022-09-12T11:14:29.875Z,3.19
2022-09-12T11:16:59.783Z,3.15
2022-09-12T11:19:29.843Z,3.22
2022-09-12T11:24:29.847Z,3.78
2022-09-12T11:26:59.898Z,3.63
2022-09-12T11:29:29.929Z,4.05
2022-09-12T11:36:59.981Z,3.76
2022-09-12T11:42:00.027Z,4.3
2022-09-12T11:44:30.057Z,5.86
2022-09-12T11:52:00.109Z,7.36
2022-09-12T11:54:30.156Z,6.06
2022-09-12T11:57:00.297Z,19.73
2022-09-12T11:59:30.179Z,11.52
2022-09-12T12:02:00.389Z,8.94
2022-09-12T12:04:30.222Z,5.62
2022-09-12T12:07:00.267Z,3.68
2022-09-12T12:12:00.300Z,3.18
2022-09-12T12:14:30.326Z,3.65
2022-09-12T12:22:00.388Z,3.33
2022-09-12T12:24:30.429Z,2.62
2022-09-12T12:29:30.511Z,3.56
2022-09-12T12:34:30.516Z,3.12
2022-09-12T12:37:04.304Z,4.11
2022-09-12T12:42:00.618Z,3.46
2022-09-12T12:44:30.618Z,3.19
2022-09-12T12:47:00.624Z,3.05
2022-09-12T12:49:30.656Z,2.96
2022-09-12T12:52:00.683Z,3.13
2022-09-12T12:54:30.700Z,3.88
2022-09-12T12:57:00.738Z,4.39
2022-09-12T12:59:30.757Z,4.27
2022-09-12T13:04:30.801Z,3.89
2022-09-12T13:09:30.843Z,3.88
2022-09-12T13:12:00.879Z,2.98
2022-09-12T13:22:00.949Z,3.21
2022-09-12T13:24:30.992Z,3.31
2022-09-12T13:27:01.003Z,2.82
2022-09-12T13:29:31.020Z,5.43
2022-09-12T13:32:01.051Z,4.93
2022-09-12T13:37:01.098Z,3.54
2022-09-12T13:42:01.147Z,4.03
2022-09-12T13:44:31.186Z,3.39
2022-09-12T13:49:31.348Z,5.03
2022-09-12T13:59:31.325Z,3.92
2022-09-12T14:02:01.398Z,3.47
2022-09-12T14:04:31.368Z,3.65
2022-09-12T14:09:31.408Z,3.31
2022-09-12T14:12:01.474Z,3.85
2022-09-12T14:14:31.488Z,10.62
2022-09-12T14:17:01.482Z,6.8
2022-09-12T14:19:31.496Z,4.94
2022-09-12T14:22:01.593Z,3.74
2022-09-12T14:24:31.550Z,2.99
2022-09-12T14:27:01.594Z,2.86
2022-09-12T14:32:01.639Z,3.37
2022-09-12T14:34:31.672Z,3.41
2022-09-12T14:37:01.662Z,2.98
2022-09-12T14:39:31.694Z,3.05
2022-09-12T14:44:31.738Z,3.31
2022-09-12T14:47:01.759Z,3.23
2022-09-12T14:49:31.783Z,2.6
2022-09-12T14:52:01.813Z,5.01
2022-09-12T14:54:31.837Z,3.84
2022-09-12T14:57:01.870Z,3.77
2022-09-12T14:59:31.874Z,6.09
2022-09-12T15:02:01.934Z,4.15
2022-09-12T15:04:31.969Z,3.49
2022-09-12T15:07:01.941Z,3.27
2022-09-12T15:09:31.973Z,3.91
2022-09-12T15:12:02.036Z,3.19
2022-09-12T15:14:32.034Z,3.37
2022-09-12T15:17:02.062Z,4.51
2022-09-12T15:19:32.081Z,7.46
2022-09-12T15:22:02.137Z,6.05
2022-09-12T15:24:32.150Z,4.05
2022-09-12T15:27:02.173Z,3.39
2022-09-12T15:29:32.159Z,3.33
2022-09-12T15:32:02.316Z,4.11
2022-09-12T15:34:32.221Z,3.15
2022-09-12T15:37:02.240Z,3.33
2022-09-12T15:39:32.267Z,2.92
2022-09-12T15:42:02.323Z,3.46
2022-09-12T15:44:32.319Z,3.38
2022-09-12T15:47:02.330Z,2.95
2022-09-12T15:49:32.352Z,2.79
2022-09-12T15:52:02.397Z,2.73
2022-09-12T15:54:32.415Z,2.58
2022-09-12T15:57:02.447Z,3.65
2022-09-12T15:59:32.531Z,3.41
2022-09-12T16:02:02.549Z,3
2022-09-12T16:04:32.509Z,3.65
2022-09-12T16:07:02.552Z,4.42
2022-09-12T16:09:32.672Z,3.4
2022-09-12T16:12:02.580Z,4.82
2022-09-12T16:14:32.612Z,4.12
2022-09-12T16:17:02.663Z,5.51
2022-09-12T16:19:32.662Z,4.71
2022-09-12T16:22:02.693Z,4.65
2022-09-12T16:24:32.713Z,3.98
2022-09-12T16:27:02.730Z,3.27
2022-09-12T16:32:02.782Z,3.51
2022-09-12T16:34:32.795Z,4.04
2022-09-12T16:37:02.826Z,4.32
2022-09-12T16:39:32.849Z,3.31
2022-09-12T16:42:02.861Z,3.38
2022-09-12T16:44:32.890Z,35.6
2022-09-12T16:47:02.936Z,23.7
2022-09-12T16:49:32.957Z,13.83
2022-09-12T16:52:03.014Z,8.37
2022-09-12T16:54:32.984Z,5.6
2022-09-12T16:57:03.035Z,5.46
2022-09-12T16:59:33.049Z,4.82
2022-09-12T17:02:03.186Z,3.95
2022-09-12T17:04:33.105Z,3.66
2022-09-12T17:07:03.128Z,3.68
2022-09-12T17:09:33.163Z,3.75
2022-09-12T17:12:03.163Z,3.85
2022-09-12T17:14:33.206Z,4.16
2022-09-12T17:17:03.224Z,3.11
2022-09-12T17:19:33.232Z,3.31
2022-09-12T17:22:03.271Z,2.77
2022-09-12T17:24:33.298Z,3.01
2022-09-12T17:27:03.369Z,3.19
2022-09-12T17:29:33.343Z,3.09
2022-09-12T17:32:03.360Z,2.98
2022-09-12T17:37:03.404Z,3.13
2022-09-12T17:39:33.431Z,3.96
2022-09-12T17:42:03.477Z,3.58
2022-09-12T17:44:33.476Z,4.31
2022-09-12T17:47:03.514Z,5
2022-09-12T17:52:03.544Z,5.79
2022-09-12T17:57:03.609Z,5.9
2022-09-12T17:59:33.630Z,5.34
2022-09-12T18:04:33.681Z,4.62
2022-09-12T18:07:03.709Z,5.93
2022-09-12T18:09:33.724Z,5.94
2022-09-12T18:14:33.759Z,4.92
2022-09-12T18:17:03.803Z,6.61
2022-09-12T18:19:33.822Z,7.73
2022-09-12T18:22:03.844Z,6.98
2022-09-12T18:24:33.862Z,5.21
2022-09-12T18:29:33.919Z,5.72
2022-09-12T18:34:33.967Z,5.34
2022-09-12T18:42:04.018Z,4.42
2022-09-12T18:52:04.124Z,11.04
2022-09-12T18:54:34.139Z,8.44
2022-09-12T18:57:04.193Z,7.83
2022-09-12T18:59:34.193Z,6.24
2022-09-12T19:04:34.255Z,7.08
2022-09-12T19:07:04.290Z,7.4
2022-09-12T19:09:34.279Z,5.67
2022-09-12T19:19:37.634Z,5.28
2022-09-12T19:22:04.414Z,5.91
2022-09-12T19:24:34.432Z,4.96
2022-09-12T19:29:34.491Z,5
2022-09-12T19:32:04.578Z,4.78
2022-09-12T19:34:34.518Z,6.59
2022-09-12T19:37:04.573Z,5.78
2022-09-12T19:39:34.579Z,5.36
2022-09-12T19:44:34.631Z,5.12
2022-09-12T19:47:04.647Z,4.92
2022-09-12T19:49:34.673Z,4.46
2022-09-12T19:54:34.709Z,5.69
2022-09-12T19:57:04.739Z,6.5
2022-09-12T20:04:34.813Z,5.45
2022-09-12T20:07:04.845Z,5.58
2022-09-12T20:14:34.898Z,9.95
2022-09-12T20:17:04.933Z,8.43
2022-09-12T20:19:34.962Z,9.27
2022-09-12T20:22:04.989Z,7.63
2022-09-12T20:24:35.133Z,6.74
2022-09-12T20:29:35.036Z,4.73
2022-09-12T20:37:05.126Z,5.47
2022-09-12T20:39:35.151Z,5.29
2022-09-12T20:42:05.166Z,8.9
2022-09-12T20:49:35.248Z,6.06
2022-09-12T20:52:05.252Z,5
2022-09-12T20:57:05.317Z,4.95
2022-09-12T21:04:35.391Z,7.49
2022-09-12T21:07:05.395Z,5.49
2022-09-12T21:09:35.480Z,5.07
2022-09-12T21:14:35.482Z,4.24
2022-09-12T21:19:35.506Z,4.91
2022-09-12T21:22:05.555Z,4.58
2022-09-12T21:37:05.675Z,5.27
2022-09-12T21:42:05.733Z,7.28
2022-09-12T21:49:35.805Z,4.72
2022-09-12T21:54:35.862Z,5.05
2022-09-12T21:57:05.877Z,4.88
2022-09-12T22:04:35.928Z,6.12
2022-09-12T22:14:36.034Z,4.36
2022-09-12T22:17:06.082Z,5.25
2022-09-12T22:27:06.144Z,6.67
2022-09-12T22:29:36.185Z,6.77
2022-09-12T22:34:36.237Z,6.76
2022-09-12T22:42:06.289Z,6.39
2022-09-12T22:49:36.364Z,4.03
2022-09-12T22:52:06.381Z,4.31
2022-09-12T23:02:06.494Z,4.57
2022-09-12T23:04:36.516Z,5.01
2022-09-12T23:07:06.521Z,4.92
2022-09-12T23:14:36.598Z,4.02
2022-09-12T23:17:06.644Z,3.49
2022-09-12T23:27:06.735Z,4.38
2022-09-12T23:39:36.853Z,4.64
2022-09-12T23:42:06.858Z,4.55
2022-09-12T23:54:36.998Z,4.13
